Aérodrome :
LOGIN :

S'inscrire | Disclaimer

   EN    FR    IT 

 










Légende :    VFR   VFR Marginal   IFR   IFR Intensif   IFR Très Intensif
Visi : 
Plafond : 
>= 8 km
>= 3000ft
5 à 8 km
1000 à 3000 ft
1500m à 5 km
500 à 1000 ft
800 à 1500m
200 à 500 ft
< 800m
< 200 ft
Symboles :   Orages  Brouillard  Fortes neiges  Fortes précipitations  Vent > 20 kt
SIGMETs :   Divers  Orages  Givrage  Turbulence  Onde Orograph.  Cendres Volcan.







- Altitude de l'aérodrome : 80 ft
- Code IATA : LPL
- Voir les cartes d'approche


EGGP - Liverpool John Lennon

DERNIER METAR :
  • 181820Z 05004KT 0600 R27/0125 FG NSC 03/03 Q1032

METARs EXPIRÉS :
  • 181750Z 05004KT 0200 R27/0175 FG MIFG BKN000 03/03 Q1031
  • 181720Z 04005KT 0400 R27/0125 FG MIFG SCT002 03/03 Q1031
  • 181650Z 03004KT 6000 0600E R27/0125 FG MIFG SCT002 03/03 Q1031
  • 181620Z 06004KT 9000 VCFG BCFG FEW010 05/05 Q1031
  • 181550Z 07002KT 9000 VCFG FEW010 05/05 Q1030

TAF TAF EGGP
Valide du 18 à 18h jusqu'au 19 à 18h UTC


181705Z 1818/1918 13004KT 7000 SCT003
PROB40 1818/1907 0200 FG VV///
BECMG 1907/1910 BKN008
BECMG 1910/1912 9999 SCT020
TEMPO 1910/1918 BKN012
ATIS : +44 151 907 2000 (option 5 or ext 5150)
Météo : +44 871 750 5150
Pas de NOTAMs connus pour ce terrain.



MET'MAP, la Météo Aéronautique d'un coup d'oeil ! - Copyright ORBIFLY Décembre 2007 - Disclaimer

ORBIFLY MET'MAP TEAM :

Programmation & Développement : Alexandra Zaïnal
Conception & Développement : Baudouin d'Aumeries
Co-Programmation & Développement : Marc-Olivier Méhu
Soutien technique & logistique : Manuel Goepfert

Contact : metmap@orbifly.com




SOURCES & CREDITS :

   NOAA